Ringsted, Iowa
Current Conditions -  °F | °C
As of 7:52 AM on Tuesday 27 Jan 2015 (Local Time) from KEST Reporting Station
Moderate Fog Moderate Fog  
Wind Chill: 22°   Ceiling: 200
Heat Index: 27°   Visibility: 0.25mi
Dew Point: 27°   Wind: 5mph
Humidity: 100%   Direction: 360°N
Pressure: 30.11"   Gusts: NA
Location:  43.29°N, 94.51°W
Report Text: KEST 271352Z AUTO 36004KT 1/4SM FZFG VV002 M03/M03 A3011 RMK AO2 SLP210 I1001 T10281028
Loading
Personal Weather Stations






























Interactive Weather Map New forecast layout! Learn more

10-Day Weather Forecast

Advertisements
Track Severe Weather on mobile